Terminal Aerodrome Forecast
Issued by NWS

Home | Current Version | Previous Version | Text Only | Print | Product List | Glossary On
Versions: 1 2 3 4 5 6 7 8 9 10 11 12 13 14 15 16 17 18
000
FTUS45 KVEF 031527 AAA
TAFEED
TAF AMD
KEED 031527Z 0315/0412 21008KT P6SM SCT150 BKN250
      TEMPO 0318/0320 15015G25KT -TSRA SCT080 BKN100CB
     FM032100 21007KT P6SM FEW150 BKN250
     FM040500 25007KT P6SM FEW150=

USA.gov is the U.S. government's official web portal to all federal, state and local government web resources and services.